sensor_id;sensor_type;location;lat;lon;timestamp;P1;durP1;ratioP1;P2;durP2;ratioP2
61638;SDS011;47544;52.484;4.658;2023-04-03T00:00:09;4.22;;;1.48;;
61638;SDS011;47544;52.484;4.658;2023-04-03T00:00:20;4.80;;;1.55;;
61638;SDS011;47544;52.484;4.658;2023-04-03T00:00:31;4.75;;;1.48;;
61638;SDS011;47544;52.484;4.658;2023-04-03T00:00:43;4.72;;;1.45;;
61638;SDS011;47544;52.484;4.658;2023-04-03T00:00:55;4.15;;;1.55;;
61638;SDS011;47544;52.484;4.658;2023-04-03T00:01:06;4.55;;;1.60;;
61638;SDS011;47544;52.484;4.658;2023-04-03T00:01:17;4.82;;;1.67;;
61638;SDS011;47544;52.484;4.658;2023-04-03T00:01:29;4.97;;;1.60;;
61638;SDS011;47544;52.484;4.658;2023-04-03T00:01:40;4.82;;;1.50;;
61638;SDS011;47544;52.484;4.658;2023-04-03T00:01:51;3.90;;;1.30;;
61638;SDS011;47544;52.484;4.658;2023-04-03T00:02:02;4.45;;;1.58;;
61638;SDS011;47544;52.484;4.658;2023-04-03T00:02:15;4.55;;;1.60;;
61638;SDS011;47544;52.484;4.658;2023-04-03T00:02:26;4.80;;;1.70;;
61638;SDS011;47544;52.484;4.658;2023-04-03T00:02:38;4.05;;;1.50;;
61638;SDS011;47544;52.484;4.658;2023-04-03T00:02:51;3.83;;;1.58;;
61638;SDS011;47544;52.484;4.658;2023-04-03T00:03:05;4.25;;;1.60;;
61638;SDS011;47544;52.484;4.658;2023-04-03T00:03:17;4.97;;;1.60;;
61638;SDS011;47544;52.484;4.658;2023-04-03T00:03:28;4.75;;;1.52;;
61638;SDS011;47544;52.484;4.658;2023-04-03T00:03:39;4.30;;;1.50;;
61638;SDS011;47544;52.484;4.658;2023-04-03T00:03:52;3.90;;;1.50;;
61638;SDS011;47544;52.484;4.658;2023-04-03T00:04:04;4.60;;;1.67;;
61638;SDS011;47544;52.484;4.658;2023-04-03T00:04:18;4.72;;;1.60;;
61638;SDS011;47544;52.484;4.658;2023-04-03T00:04:29;5.03;;;1.77;;
61638;SDS011;47544;52.484;4.658;2023-04-03T00:04:40;4.75;;;1.80;;
61638;SDS011;47544;52.484;4.658;2023-04-03T00:04:52;4.55;;;1.65;;
61638;SDS011;47544;52.484;4.658;2023-04-03T00:05:06;4.65;;;1.60;;
61638;SDS011;47544;52.484;4.658;2023-04-03T00:05:17;5.18;;;1.60;;
61638;SDS011;47544;52.484;4.658;2023-04-03T00:05:29;5.07;;;1.70;;
61638;SDS011;47544;52.484;4.658;2023-04-03T00:05:41;4.32;;;1.48;;
61638;SDS011;47544;52.484;4.658;2023-04-03T00:05:53;4.30;;;1.42;;
61638;SDS011;47544;52.484;4.658;2023-04-03T00:06:05;4.35;;;1.50;;
61638;SDS011;47544;52.484;4.658;2023-04-03T00:06:17;4.63;;;1.50;;
61638;SDS011;47544;52.484;4.658;2023-04-03T00:06:28;5.32;;;1.50;;
61638;SDS011;47544;52.484;4.658;2023-04-03T00:06:43;5.32;;;1.40;;
61638;SDS011;47544;52.484;4.658;2023-04-03T00:06:54;5.20;;;1.40;;
61638;SDS011;47544;52.484;4.658;2023-04-03T00:07:05;4.13;;;1.33;;
61638;SDS011;47544;52.484;4.658;2023-04-03T00:07:16;4.18;;;1.42;;
61638;SDS011;47544;52.484;4.658;2023-04-03T00:07:27;4.03;;;1.50;;
61638;SDS011;47544;52.484;4.658;2023-04-03T00:07:38;4.90;;;1.63;;
61638;SDS011;47544;52.484;4.658;2023-04-03T00:07:49;4.55;;;1.58;;
61638;SDS011;47544;52.484;4.658;2023-04-03T00:08:03;4.55;;;1.50;;
61638;SDS011;47544;52.484;4.658;2023-04-03T00:08:18;4.97;;;1.50;;
61638;SDS011;47544;52.484;4.658;2023-04-03T00:08:30;5.03;;;1.50;;
61638;SDS011;47544;52.484;4.658;2023-04-03T00:08:41;5.13;;;1.42;;
61638;SDS011;47544;52.484;4.658;2023-04-03T00:08:52;4.55;;;1.50;;
61638;SDS011;47544;52.484;4.658;2023-04-03T00:09:03;4.38;;;1.65;;
61638;SDS011;47544;52.484;4.658;2023-04-03T00:09:14;4.25;;;1.88;;
61638;SDS011;47544;52.484;4.658;2023-04-03T00:09:26;4.88;;;1.80;;
61638;SDS011;47544;52.484;4.658;2023-04-03T00:09:37;4.88;;;1.58;;
61638;SDS011;47544;52.484;4.658;2023-04-03T00:09:48;4.50;;;1.40;;
61638;SDS011;47544;52.484;4.658;2023-04-03T00:10:00;4.35;;;1.50;;
61638;SDS011;47544;52.484;4.658;2023-04-03T00:10:11;4.57;;;1.60;;
61638;SDS011;47544;52.484;4.658;2023-04-03T00:10:22;5.15;;;1.48;;
61638;SDS011;47544;52.484;4.658;2023-04-03T00:10:33;4.20;;;1.35;;
61638;SDS011;47544;52.484;4.658;2023-04-03T00:10:46;3.80;;;1.40;;
61638;SDS011;47544;52.484;4.658;2023-04-03T00:10:57;3.22;;;1.40;;
61638;SDS011;47544;52.484;4.658;2023-04-03T00:11:08;3.38;;;1.40;;
61638;SDS011;47544;52.484;4.658;2023-04-03T00:11:20;3.80;;;1.50;;
61638;SDS011;47544;52.484;4.658;2023-04-03T00:11:31;4.05;;;1.52;;
61638;SDS011;47544;52.484;4.658;2023-04-03T00:11:42;4.22;;;1.50;;
61638;SDS011;47544;52.484;4.658;2023-04-03T00:11:53;4.35;;;1.50;;
61638;SDS011;47544;52.484;4.658;2023-04-03T00:12:05;4.50;;;1.60;;
61638;SDS011;47544;52.484;4.658;2023-04-03T00:12:16;4.35;;;1.67;;
61638;SDS011;47544;52.484;4.658;2023-04-03T00:12:27;4.88;;;1.67;;
61638;SDS011;47544;52.484;4.658;2023-04-03T00:12:38;5.20;;;1.58;;
61638;SDS011;47544;52.484;4.658;2023-04-03T00:12:52;5.03;;;1.40;;
61638;SDS011;47544;52.484;4.658;2023-04-03T00:13:05;4.68;;;1.40;;
61638;SDS011;47544;52.484;4.658;2023-04-03T00:13:19;4.43;;;1.30;;
61638;SDS011;47544;52.484;4.658;2023-04-03T00:13:30;4.20;;;1.40;;
61638;SDS011;47544;52.484;4.658;2023-04-03T00:13:41;4.65;;;1.50;;
61638;SDS011;47544;52.484;4.658;2023-04-03T00:13:53;4.68;;;1.50;;
61638;SDS011;47544;52.484;4.658;2023-04-03T00:14:05;4.72;;;1.50;;
61638;SDS011;47544;52.484;4.658;2023-04-03T00:14:16;4.85;;;1.60;;
61638;SDS011;47544;52.484;4.658;2023-04-03T00:14:27;5.18;;;1.67;;
61638;SDS011;47544;52.484;4.658;2023-04-03T00:14:38;4.38;;;1.50;;
61638;SDS011;47544;52.484;4.658;2023-04-03T00:14:49;4.78;;;1.50;;
61638;SDS011;47544;52.484;4.658;2023-04-03T00:15:00;4.32;;;1.50;;
61638;SDS011;47544;52.484;4.658;2023-04-03T00:15:15;4.95;;;1.60;;
61638;SDS011;47544;52.484;4.658;2023-04-03T00:15:26;5.06;;;1.60;;
61638;SDS011;47544;52.484;4.658;2023-04-03T00:15:39;4.47;;;1.50;;
61638;SDS011;47544;52.484;4.658;2023-04-03T00:15:50;3.55;;;1.60;;
61638;SDS011;47544;52.484;4.658;2023-04-03T00:16:01;4.10;;;1.60;;
61638;SDS011;47544;52.484;4.658;2023-04-03T00:16:14;5.30;;;1.50;;
61638;SDS011;47544;52.484;4.658;2023-04-03T00:16:29;4.95;;;1.48;;
61638;SDS011;47544;52.484;4.658;2023-04-03T00:16:41;4.05;;;1.40;;
61638;SDS011;47544;52.484;4.658;2023-04-03T00:16:53;4.75;;;1.42;;
61638;SDS011;47544;52.484;4.658;2023-04-03T00:17:04;4.88;;;1.50;;
61638;SDS011;47544;52.484;4.658;2023-04-03T00:17:15;5.18;;;1.60;;
61638;SDS011;47544;52.484;4.658;2023-04-03T00:17:26;4.80;;;1.70;;
61638;SDS011;47544;52.484;4.658;2023-04-03T00:17:37;4.20;;;1.70;;
61638;SDS011;47544;52.484;4.658;2023-04-03T00:17:48;4.20;;;1.60;;
61638;SDS011;47544;52.484;4.658;2023-04-03T00:17:59;4.78;;;1.70;;
61638;SDS011;47544;52.484;4.658;2023-04-03T00:18:13;5.00;;;1.70;;
61638;SDS011;47544;52.484;4.658;2023-04-03T00:18:24;4.47;;;1.63;;
61638;SDS011;47544;52.484;4.658;2023-04-03T00:18:35;4.43;;;1.50;;
61638;SDS011;47544;52.484;4.658;2023-04-03T00:18:47;4.57;;;1.48;;
61638;SDS011;47544;52.484;4.658;2023-04-03T00:18:58;4.60;;;1.40;;
61638;SDS011;47544;52.484;4.658;2023-04-03T00:19:09;4.00;;;1.48;;
61638;SDS011;47544;52.484;4.658;2023-04-03T00:19:22;4.28;;;1.70;;
61638;SDS011;47544;52.484;4.658;2023-04-03T00:19:34;5.60;;;1.83;;
61638;SDS011;47544;52.484;4.658;2023-04-03T00:19:45;4.50;;;1.52;;
61638;SDS011;47544;52.484;4.658;2023-04-03T00:19:56;4.32;;;1.40;;
61638;SDS011;47544;52.484;4.658;2023-04-03T00:20:08;3.75;;;1.25;;
61638;SDS011;47544;52.484;4.658;2023-04-03T00:20:19;3.74;;;1.24;;
61638;SDS011;47544;52.484;4.658;2023-04-03T00:20:30;3.78;;;1.30;;
61638;SDS011;47544;52.484;4.658;2023-04-03T00:20:41;3.60;;;1.30;;
61638;SDS011;47544;52.484;4.658;2023-04-03T00:20:53;4.40;;;1.38;;
61638;SDS011;47544;52.484;4.658;2023-04-03T00:21:04;4.32;;;1.40;;
61638;SDS011;47544;52.484;4.658;2023-04-03T00:21:16;3.67;;;1.40;;
61638;SDS011;47544;52.484;4.658;2023-04-03T00:21:29;3.95;;;1.48;;
61638;SDS011;47544;52.484;4.658;2023-04-03T00:21:40;4.15;;;1.40;;
61638;SDS011;47544;52.484;4.658;2023-04-03T00:21:51;5.80;;;1.42;;
61638;SDS011;47544;52.484;4.658;2023-04-03T00:22:04;5.68;;;1.42;;
61638;SDS011;47544;52.484;4.658;2023-04-03T00:22:15;3.85;;;1.50;;
61638;SDS011;47544;52.484;4.658;2023-04-03T00:22:27;3.60;;;1.38;;
61638;SDS011;47544;52.484;4.658;2023-04-03T00:22:40;3.92;;;1.40;;
61638;SDS011;47544;52.484;4.658;2023-04-03T00:22:51;4.00;;;1.50;;
61638;SDS011;47544;52.484;4.658;2023-04-03T00:23:02;4.18;;;1.67;;
61638;SDS011;47544;52.484;4.658;2023-04-03T00:23:15;4.65;;;1.50;;
61638;SDS011;47544;52.484;4.658;2023-04-03T00:23:26;4.75;;;1.50;;
61638;SDS011;47544;52.484;4.658;2023-04-03T00:23:39;4.00;;;1.50;;
61638;SDS011;47544;52.484;4.658;2023-04-03T00:23:53;3.55;;;1.45;;
61638;SDS011;47544;52.484;4.658;2023-04-03T00:24:04;3.72;;;1.33;;
61638;SDS011;47544;52.484;4.658;2023-04-03T00:24:15;4.55;;;1.45;;
61638;SDS011;47544;52.484;4.658;2023-04-03T00:24:26;5.75;;;1.70;;
61638;SDS011;47544;52.484;4.658;2023-04-03T00:24:38;5.32;;;1.55;;
61638;SDS011;47544;52.484;4.658;2023-04-03T00:24:49;4.43;;;1.40;;
61638;SDS011;47544;52.484;4.658;2023-04-03T00:25:00;4.75;;;1.50;;
61638;SDS011;47544;52.484;4.658;2023-04-03T00:25:11;4.28;;;1.50;;
61638;SDS011;47544;52.484;4.658;2023-04-03T00:25:23;5.15;;;1.50;;
61638;SDS011;47544;52.484;4.658;2023-04-03T00:25:34;5.47;;;1.58;;
61638;SDS011;47544;52.484;4.658;2023-04-03T00:25:50;5.35;;;1.50;;
61638;SDS011;47544;52.484;4.658;2023-04-03T00:26:01;4.05;;;1.33;;
61638;SDS011;47544;52.484;4.658;2023-04-03T00:26:12;3.85;;;1.30;;
61638;SDS011;47544;52.484;4.658;2023-04-03T00:26:23;3.67;;;1.27;;
61638;SDS011;47544;52.484;4.658;2023-04-03T00:26:35;3.85;;;1.40;;
61638;SDS011;47544;52.484;4.658;2023-04-03T00:26:47;4.93;;;1.55;;
61638;SDS011;47544;52.484;4.658;2023-04-03T00:26:58;5.18;;;1.50;;
61638;SDS011;47544;52.484;4.658;2023-04-03T00:27:09;4.82;;;1.33;;
61638;SDS011;47544;52.484;4.658;2023-04-03T00:27:21;4.43;;;1.33;;
61638;SDS011;47544;52.484;4.658;2023-04-03T00:27:33;4.25;;;1.40;;
61638;SDS011;47544;52.484;4.658;2023-04-03T00:27:44;3.88;;;1.38;;
61638;SDS011;47544;52.484;4.658;2023-04-03T00:27:55;3.53;;;1.33;;
61638;SDS011;47544;52.484;4.658;2023-04-03T00:28:06;3.03;;;1.15;;
61638;SDS011;47544;52.484;4.658;2023-04-03T00:28:21;3.15;;;1.10;;
61638;SDS011;47544;52.484;4.658;2023-04-03T00:28:32;3.83;;;1.20;;
61638;SDS011;47544;52.484;4.658;2023-04-03T00:28:43;4.70;;;1.40;;
61638;SDS011;47544;52.484;4.658;2023-04-03T00:28:55;4.60;;;1.50;;
61638;SDS011;47544;52.484;4.658;2023-04-03T00:29:06;5.05;;;1.60;;
61638;SDS011;47544;52.484;4.658;2023-04-03T00:29:21;6.15;;;1.40;;
61638;SDS011;47544;52.484;4.658;2023-04-03T00:29:35;5.88;;;1.40;;
61638;SDS011;47544;52.484;4.658;2023-04-03T00:29:46;3.95;;;1.50;;
61638;SDS011;47544;52.484;4.658;2023-04-03T00:29:57;4.20;;;1.30;;
61638;SDS011;47544;52.484;4.658;2023-04-03T00:30:09;3.83;;;1.20;;
61638;SDS011;47544;52.484;4.658;2023-04-03T00:30:21;3.58;;;1.20;;
61638;SDS011;47544;52.484;4.658;2023-04-03T00:30:33;2.92;;;1.20;;
61638;SDS011;47544;52.484;4.658;2023-04-03T00:30:45;3.85;;;1.30;;
61638;SDS011;47544;52.484;4.658;2023-04-03T00:30:57;4.50;;;1.30;;
61638;SDS011;47544;52.484;4.658;2023-04-03T00:31:08;4.00;;;1.27;;
61638;SDS011;47544;52.484;4.658;2023-04-03T00:31:20;4.20;;;1.48;;
61638;SDS011;47544;52.484;4.658;2023-04-03T00:31:33;4.90;;;1.63;;
61638;SDS011;47544;52.484;4.658;2023-04-03T00:31:44;5.32;;;1.70;;
61638;SDS011;47544;52.484;4.658;2023-04-03T00:31:56;4.22;;;1.45;;
61638;SDS011;47544;52.484;4.658;2023-04-03T00:32:07;3.85;;;1.30;;
61638;SDS011;47544;52.484;4.658;2023-04-03T00:32:18;3.83;;;1.20;;
61638;SDS011;47544;52.484;4.658;2023-04-03T00:32:29;4.40;;;1.33;;
61638;SDS011;47544;52.484;4.658;2023-04-03T00:32:40;4.93;;;1.48;;
61638;SDS011;47544;52.484;4.658;2023-04-03T00:32:52;5.22;;;1.70;;
61638;SDS011;47544;52.484;4.658;2023-04-03T00:33:06;5.43;;;1.60;;
61638;SDS011;47544;52.484;4.658;2023-04-03T00:33:19;5.35;;;1.27;;
61638;SDS011;47544;52.484;4.658;2023-04-03T00:33:32;4.72;;;1.15;;
61638;SDS011;47544;52.484;4.658;2023-04-03T00:33:43;4.75;;;1.30;;
61638;SDS011;47544;52.484;4.658;2023-04-03T00:33:57;4.13;;;1.45;;
61638;SDS011;47544;52.484;4.658;2023-04-03T00:34:08;5.55;;;1.48;;
61638;SDS011;47544;52.484;4.658;2023-04-03T00:34:19;5.80;;;1.40;;
61638;SDS011;47544;52.484;4.658;2023-04-03T00:34:32;5.25;;;1.40;;
61638;SDS011;47544;52.484;4.658;2023-04-03T00:34:44;5.03;;;1.50;;
61638;SDS011;47544;52.484;4.658;2023-04-03T00:34:55;4.47;;;1.40;;
61638;SDS011;47544;52.484;4.658;2023-04-03T00:35:07;4.47;;;1.40;;
61638;SDS011;47544;52.484;4.658;2023-04-03T00:35:18;4.32;;;1.23;;
61638;SDS011;47544;52.484;4.658;2023-04-03T00:35:30;4.88;;;1.30;;
61638;SDS011;47544;52.484;4.658;2023-04-03T00:35:41;4.05;;;1.23;;
61638;SDS011;47544;52.484;4.658;2023-04-03T00:35:52;3.22;;;1.30;;
61638;SDS011;47544;52.484;4.658;2023-04-03T00:36:06;3.33;;;1.30;;
61638;SDS011;47544;52.484;4.658;2023-04-03T00:36:20;4.05;;;1.40;;
61638;SDS011;47544;52.484;4.658;2023-04-03T00:36:31;3.85;;;1.40;;
61638;SDS011;47544;52.484;4.658;2023-04-03T00:36:42;3.95;;;1.42;;
61638;SDS011;47544;52.484;4.658;2023-04-03T00:36:53;3.92;;;1.45;;
61638;SDS011;47544;52.484;4.658;2023-04-03T00:37:05;3.83;;;1.42;;
61638;SDS011;47544;52.484;4.658;2023-04-03T00:37:16;3.53;;;1.40;;
61638;SDS011;47544;52.484;4.658;2023-04-03T00:37:27;2.97;;;1.30;;
61638;SDS011;47544;52.484;4.658;2023-04-03T00:37:39;2.90;;;1.20;;
61638;SDS011;47544;52.484;4.658;2023-04-03T00:37:51;3.55;;;1.20;;
61638;SDS011;47544;52.484;4.658;2023-04-03T00:38:02;3.75;;;1.30;;
61638;SDS011;47544;52.484;4.658;2023-04-03T00:38:13;4.22;;;1.30;;
61638;SDS011;47544;52.484;4.658;2023-04-03T00:38:25;3.88;;;1.30;;
61638;SDS011;47544;52.484;4.658;2023-04-03T00:38:36;4.10;;;1.30;;
61638;SDS011;47544;52.484;4.658;2023-04-03T00:38:48;3.83;;;1.30;;
61638;SDS011;47544;52.484;4.658;2023-04-03T00:38:59;4.85;;;1.33;;
61638;SDS011;47544;52.484;4.658;2023-04-03T00:39:10;5.22;;;1.38;;
61638;SDS011;47544;52.484;4.658;2023-04-03T00:39:23;4.72;;;1.33;;
61638;SDS011;47544;52.484;4.658;2023-04-03T00:39:34;3.50;;;1.30;;
61638;SDS011;47544;52.484;4.658;2023-04-03T00:39:47;4.03;;;1.30;;
61638;SDS011;47544;52.484;4.658;2023-04-03T00:39:58;4.55;;;1.23;;
61638;SDS011;47544;52.484;4.658;2023-04-03T00:40:11;4.28;;;1.20;;
61638;SDS011;47544;52.484;4.658;2023-04-03T00:40:23;4.80;;;1.30;;
61638;SDS011;47544;52.484;4.658;2023-04-03T00:40:36;5.10;;;1.40;;
61638;SDS011;47544;52.484;4.658;2023-04-03T00:40:48;4.65;;;1.40;;
61638;SDS011;47544;52.484;4.658;2023-04-03T00:40:59;3.70;;;1.38;;
61638;SDS011;47544;52.484;4.658;2023-04-03T00:41:10;3.22;;;1.35;;
61638;SDS011;47544;52.484;4.658;2023-04-03T00:41:22;2.85;;;1.30;;
61638;SDS011;47544;52.484;4.658;2023-04-03T00:41:33;3.03;;;1.27;;
61638;SDS011;47544;52.484;4.658;2023-04-03T00:41:44;3.58;;;1.30;;
61638;SDS011;47544;52.484;4.658;2023-04-03T00:41:55;4.35;;;1.40;;
61638;SDS011;47544;52.484;4.658;2023-04-03T00:42:08;4.38;;;1.50;;
61638;SDS011;47544;52.484;4.658;2023-04-03T00:42:19;4.47;;;1.48;;
61638;SDS011;47544;52.484;4.658;2023-04-03T00:42:30;4.18;;;1.42;;
61638;SDS011;47544;52.484;4.658;2023-04-03T00:42:42;4.05;;;1.48;;
61638;SDS011;47544;52.484;4.658;2023-04-03T00:42:56;3.83;;;1.30;;
61638;SDS011;47544;52.484;4.658;2023-04-03T00:43:10;4.05;;;1.40;;
61638;SDS011;47544;52.484;4.658;2023-04-03T00:43:25;3.78;;;1.48;;
61638;SDS011;47544;52.484;4.658;2023-04-03T00:43:37;3.85;;;1.40;;
61638;SDS011;47544;52.484;4.658;2023-04-03T00:43:48;4.45;;;1.42;;
61638;SDS011;47544;52.484;4.658;2023-04-03T00:43:59;5.03;;;1.50;;
61638;SDS011;47544;52.484;4.658;2023-04-03T00:44:20;4.72;;;1.42;;
61638;SDS011;47544;52.484;4.658;2023-04-03T00:45:25;4.70;;;1.65;;
61638;SDS011;47544;52.484;4.658;2023-04-03T00:45:38;4.35;;;1.50;;
61638;SDS011;47544;52.484;4.658;2023-04-03T00:45:51;4.18;;;1.40;;
61638;SDS011;47544;52.484;4.658;2023-04-03T00:46:07;3.95;;;1.20;;
61638;SDS011;47544;52.484;4.658;2023-04-03T00:46:18;4.13;;;1.30;;
61638;SDS011;47544;52.484;4.658;2023-04-03T00:46:29;4.07;;;1.35;;
61638;SDS011;47544;52.484;4.658;2023-04-03T00:46:40;4.82;;;1.45;;
61638;SDS011;47544;52.484;4.658;2023-04-03T00:46:51;4.80;;;1.40;;
61638;SDS011;47544;52.484;4.658;2023-04-03T00:47:03;4.13;;;1.30;;
61638;SDS011;47544;52.484;4.658;2023-04-03T00:47:15;4.20;;;1.30;;
61638;SDS011;47544;52.484;4.658;2023-04-03T00:47:27;4.60;;;1.50;;
61638;SDS011;47544;52.484;4.658;2023-04-03T00:47:42;4.32;;;1.35;;
61638;SDS011;47544;52.484;4.658;2023-04-03T00:47:53;3.68;;;1.20;;
61638;SDS011;47544;52.484;4.658;2023-04-03T00:48:05;4.00;;;1.30;;
61638;SDS011;47544;52.484;4.658;2023-04-03T00:48:18;3.97;;;1.48;;
61638;SDS011;47544;52.484;4.658;2023-04-03T00:48:32;3.80;;;1.60;;
61638;SDS011;47544;52.484;4.658;2023-04-03T00:48:47;3.97;;;1.50;;
61638;SDS011;47544;52.484;4.658;2023-04-03T00:48:58;4.82;;;1.67;;
61638;SDS011;47544;52.484;4.658;2023-04-03T00:49:09;4.50;;;1.60;;
61638;SDS011;47544;52.484;4.658;2023-04-03T00:49:21;4.10;;;1.60;;
61638;SDS011;47544;52.484;4.658;2023-04-03T00:49:32;3.65;;;1.40;;
61638;SDS011;47544;52.484;4.658;2023-04-03T00:49:46;3.83;;;1.45;;
61638;SDS011;47544;52.484;4.658;2023-04-03T00:49:57;3.83;;;1.40;;
61638;SDS011;47544;52.484;4.658;2023-04-03T00:50:08;4.43;;;1.55;;
61638;SDS011;47544;52.484;4.658;2023-04-03T00:50:20;4.43;;;1.70;;
61638;SDS011;47544;52.484;4.658;2023-04-03T00:50:31;4.22;;;1.80;;
61638;SDS011;47544;52.484;4.658;2023-04-03T00:50:44;3.30;;;1.40;;
61638;SDS011;47544;52.484;4.658;2023-04-03T00:50:56;2.97;;;1.30;;
61638;SDS011;47544;52.484;4.658;2023-04-03T00:51:09;3.28;;;1.20;;
61638;SDS011;47544;52.484;4.658;2023-04-03T00:51:23;3.33;;;1.20;;
61638;SDS011;47544;52.484;4.658;2023-04-03T00:51:35;4.05;;;1.33;;
61638;SDS011;47544;52.484;4.658;2023-04-03T00:51:47;4.85;;;1.40;;
61638;SDS011;47544;52.484;4.658;2023-04-03T00:51:58;5.65;;;1.55;;
61638;SDS011;47544;52.484;4.658;2023-04-03T00:52:10;5.20;;;1.48;;
61638;SDS011;47544;52.484;4.658;2023-04-03T00:52:25;4.15;;;1.30;;
61638;SDS011;47544;52.484;4.658;2023-04-03T00:52:38;5.13;;;1.50;;
61638;SDS011;47544;52.484;4.658;2023-04-03T00:52:50;5.30;;;1.60;;
61638;SDS011;47544;52.484;4.658;2023-04-03T00:53:01;4.68;;;1.38;;
61638;SDS011;47544;52.484;4.658;2023-04-03T00:53:13;4.43;;;1.40;;
61638;SDS011;47544;52.484;4.658;2023-04-03T00:53:27;4.43;;;1.40;;
61638;SDS011;47544;52.484;4.658;2023-04-03T00:53:43;4.55;;;1.38;;
61638;SDS011;47544;52.484;4.658;2023-04-03T00:53:56;4.35;;;1.50;;
61638;SDS011;47544;52.484;4.658;2023-04-03T00:54:09;4.20;;;1.42;;
61638;SDS011;47544;52.484;4.658;2023-04-03T00:54:20;3.88;;;1.27;;
61638;SDS011;47544;52.484;4.658;2023-04-03T00:54:31;4.32;;;1.20;;
61638;SDS011;47544;52.484;4.658;2023-04-03T00:54:51;4.80;;;1.38;;
61638;SDS011;47544;52.484;4.658;2023-04-03T00:55:03;4.15;;;1.40;;
61638;SDS011;47544;52.484;4.658;2023-04-03T00:55:17;4.82;;;1.40;;
61638;SDS011;47544;52.484;4.658;2023-04-03T00:55:28;4.93;;;1.50;;
61638;SDS011;47544;52.484;4.658;2023-04-03T00:55:40;4.68;;;1.50;;
61638;SDS011;47544;52.484;4.658;2023-04-03T00:55:52;4.25;;;1.45;;
61638;SDS011;47544;52.484;4.658;2023-04-03T00:56:05;4.55;;;1.35;;
61638;SDS011;47544;52.484;4.658;2023-04-03T00:56:18;4.65;;;1.40;;
61638;SDS011;47544;52.484;4.658;2023-04-03T00:56:30;3.95;;;1.30;;
61638;SDS011;47544;52.484;4.658;2023-04-03T00:56:42;3.72;;;1.23;;
61638;SDS011;47544;52.484;4.658;2023-04-03T00:56:56;2.92;;;1.20;;
61638;SDS011;47544;52.484;4.658;2023-04-03T00:57:08;2.85;;;1.30;;
61638;SDS011;47544;52.484;4.658;2023-04-03T00:57:19;3.78;;;1.38;;
61638;SDS011;47544;52.484;4.658;2023-04-03T00:57:31;4.03;;;1.42;;
61638;SDS011;47544;52.484;4.658;2023-04-03T00:57:43;3.90;;;1.40;;
61638;SDS011;47544;52.484;4.658;2023-04-03T00:57:57;4.00;;;1.40;;
61638;SDS011;47544;52.484;4.658;2023-04-03T00:58:10;4.45;;;1.42;;
61638;SDS011;47544;52.484;4.658;2023-04-03T00:58:22;4.57;;;1.50;;
61638;SDS011;47544;52.484;4.658;2023-04-03T00:58:39;4.20;;;1.30;;
61638;SDS011;47544;52.484;4.658;2023-04-03T00:58:53;4.50;;;1.30;;
61638;SDS011;47544;52.484;4.658;2023-04-03T00:59:09;4.55;;;1.45;;
61638;SDS011;47544;52.484;4.658;2023-04-03T00:59:24;3.42;;;1.35;;
61638;SDS011;47544;52.484;4.658;2023-04-03T00:59:38;3.55;;;1.23;;
61638;SDS011;47544;52.484;4.658;2023-04-03T00:59:52;4.75;;;1.48;;
61638;SDS011;47544;52.484;4.658;2023-04-03T01:00:05;4.82;;;1.52;;
61638;SDS011;47544;52.484;4.658;2023-04-03T01:00:18;4.22;;;1.38;;
61638;SDS011;47544;52.484;4.658;2023-04-03T01:00:30;5.32;;;1.42;;
61638;SDS011;47544;52.484;4.658;2023-04-03T01:00:43;5.45;;;1.45;;
61638;SDS011;47544;52.484;4.658;2023-04-03T01:00:58;3.83;;;1.30;;
61638;SDS011;47544;52.484;4.658;2023-04-03T01:01:18;3.35;;;1.30;;
61638;SDS011;47544;52.484;4.658;2023-04-03T01:01:33;4.25;;;1.30;;
61638;SDS011;47544;52.484;4.658;2023-04-03T01:01:44;4.15;;;1.38;;
61638;SDS011;47544;52.484;4.658;2023-04-03T01:01:56;3.45;;;1.50;;
61638;SDS011;47544;52.484;4.658;2023-04-03T01:02:07;4.30;;;1.40;;
61638;SDS011;47544;52.484;4.658;2023-04-03T01:02:21;3.95;;;1.23;;
61638;SDS011;47544;52.484;4.658;2023-04-03T01:02:32;3.72;;;1.27;;
61638;SDS011;47544;52.484;4.658;2023-04-03T01:02:43;3.60;;;1.30;;
61638;SDS011;47544;52.484;4.658;2023-04-03T01:02:54;3.45;;;1.40;;
61638;SDS011;47544;52.484;4.658;2023-04-03T01:03:05;2.95;;;1.30;;
61638;SDS011;47544;52.484;4.658;2023-04-03T01:03:16;3.95;;;1.30;;
61638;SDS011;47544;52.484;4.658;2023-04-03T01:03:31;4.20;;;1.20;;
61638;SDS011;47544;52.484;4.658;2023-04-03T01:03:46;4.57;;;1.20;;
61638;SDS011;47544;52.484;4.658;2023-04-03T01:03:58;4.88;;;1.30;;
61638;SDS011;47544;52.484;4.658;2023-04-03T01:04:24;4.97;;;1.30;;
61638;SDS011;47544;52.484;4.658;2023-04-03T01:04:38;3.58;;;1.20;;
61638;SDS011;47544;52.484;4.658;2023-04-03T01:04:50;3.35;;;1.40;;
61638;SDS011;47544;52.484;4.658;2023-04-03T01:05:01;3.80;;;1.58;;
61638;SDS011;47544;52.484;4.658;2023-04-03T01:05:12;5.00;;;1.63;;
61638;SDS011;47544;52.484;4.658;2023-04-03T01:05:24;5.05;;;1.50;;
61638;SDS011;47544;52.484;4.658;2023-04-03T01:05:36;4.55;;;1.33;;
61638;SDS011;47544;52.484;4.658;2023-04-03T01:05:48;3.97;;;1.40;;
61638;SDS011;47544;52.484;4.658;2023-04-03T01:06:00;3.50;;;1.30;;
61638;SDS011;47544;52.484;4.658;2023-04-03T01:06:11;3.22;;;1.20;;
61638;SDS011;47544;52.484;4.658;2023-04-03T01:06:27;4.03;;;1.30;;
61638;SDS011;47544;52.484;4.658;2023-04-03T01:06:39;4.05;;;1.10;;
61638;SDS011;47544;52.484;4.658;2023-04-03T01:06:51;4.10;;;1.20;;
61638;SDS011;47544;52.484;4.658;2023-04-03T01:07:03;3.75;;;1.27;;
61638;SDS011;47544;52.484;4.658;2023-04-03T01:07:15;3.45;;;1.30;;
61638;SDS011;47544;52.484;4.658;2023-04-03T01:07:28;3.47;;;1.30;;
61638;SDS011;47544;52.484;4.658;2023-04-03T01:07:39;4.15;;;1.33;;
61638;SDS011;47544;52.484;4.658;2023-04-03T01:07:51;5.00;;;1.40;;
61638;SDS011;47544;52.484;4.658;2023-04-03T01:08:05;5.38;;;1.50;;
61638;SDS011;47544;52.484;4.658;2023-04-03T01:08:17;5.32;;;1.60;;
61638;SDS011;47544;52.484;4.658;2023-04-03T01:08:28;4.57;;;1.50;;
61638;SDS011;47544;52.484;4.658;2023-04-03T01:08:40;3.55;;;1.33;;
61638;SDS011;47544;52.484;4.658;2023-04-03T01:08:51;2.90;;;1.20;;
61638;SDS011;47544;52.484;4.658;2023-04-03T01:09:03;3.13;;;1.20;;
61638;SDS011;47544;52.484;4.658;2023-04-03T01:09:15;3.70;;;1.30;;
61638;SDS011;47544;52.484;4.658;2023-04-03T01:09:26;4.70;;;1.30;;
61638;SDS011;47544;52.484;4.658;2023-04-03T01:09:37;4.75;;;1.33;;
61638;SDS011;47544;52.484;4.658;2023-04-03T01:09:51;3.88;;;1.30;;
61638;SDS011;47544;52.484;4.658;2023-04-03T01:10:04;4.10;;;1.42;;
61638;SDS011;47544;52.484;4.658;2023-04-03T01:10:16;4.53;;;1.45;;
61638;SDS011;47544;52.484;4.658;2023-04-03T01:10:27;4.03;;;1.45;;
61638;SDS011;47544;52.484;4.658;2023-04-03T01:10:39;3.78;;;1.38;;
61638;SDS011;47544;52.484;4.658;2023-04-03T01:10:50;3.38;;;1.23;;
61638;SDS011;47544;52.484;4.658;2023-04-03T01:11:02;3.58;;;1.20;;
61638;SDS011;47544;52.484;4.658;2023-04-03T01:11:14;3.80;;;1.35;;
61638;SDS011;47544;52.484;4.658;2023-04-03T01:11:25;3.55;;;1.40;;
61638;SDS011;47544;52.484;4.658;2023-04-03T01:11:37;3.90;;;1.35;;
61638;SDS011;47544;52.484;4.658;2023-04-03T01:11:48;3.75;;;1.38;;
61638;SDS011;47544;52.484;4.658;2023-04-03T01:12:13;4.03;;;1.50;;
61638;SDS011;47544;52.484;4.658;2023-04-03T01:12:24;3.33;;;1.55;;
61638;SDS011;47544;52.484;4.658;2023-04-03T01:12:39;3.38;;;1.55;;
61638;SDS011;47544;52.484;4.658;2023-04-03T01:12:51;3.13;;;1.40;;
61638;SDS011;47544;52.484;4.658;2023-04-03T01:13:07;3.10;;;1.40;;
61638;SDS011;47544;52.484;4.658;2023-04-03T01:13:28;3.20;;;1.15;;
61638;SDS011;47544;52.484;4.658;2023-04-03T01:13:39;3.58;;;1.10;;
61638;SDS011;47544;52.484;4.658;2023-04-03T01:13:51;4.00;;;1.20;;
61638;SDS011;47544;52.484;4.658;2023-04-03T01:14:02;4.63;;;1.50;;
61638;SDS011;47544;52.484;4.658;2023-04-03T01:14:13;4.20;;;1.52;;
61638;SDS011;47544;52.484;4.658;2023-04-03T01:14:26;5.13;;;1.52;;